Time;durP1;ratioP1;P1;durP2;ratioP2;P2;SDS_P1;SDS_P2;PMS_P1;PMS_P2;Temp;Humidity;BMP_temperature;BMP_pressure;BME280_temperature;BME280_humidity;BME280_pressure;Samples;Min_cycle;Max_cycle;Signal;HPM_P1;HPM_P2
2021/04/10 00:01:10;;;;;;;3.43;3.13;;;13.90;19.30;;;;;;5071246;28;20171;-66
2021/04/10 00:03:36;;;;;;;3.60;3.07;;;13.90;20.50;;;;;;5071137;28;20171;-66
2021/04/10 00:06:02;;;;;;;3.70;3.20;;;13.80;19.30;;;;;;5070712;28;20583;-66
2021/04/10 00:08:27;;;;;;;4.47;3.10;;;13.80;19.80;;;;;;5071109;28;20518;-67
2021/04/10 00:10:53;;;;;;;6.43;2.83;;;13.80;19.90;;;;;;5070797;28;20590;-66
2021/04/10 00:13:18;;;;;;;3.60;2.90;;;13.80;19.30;;;;;;5070942;28;20175;-66
2021/04/10 00:15:44;;;;;;;4.90;4.47;;;13.90;19.80;;;;;;5070781;28;20187;-66
2021/04/10 00:18:10;;;;;;;3.73;3.40;;;13.90;19.40;;;;;;5065834;28;20222;-66
2021/04/10 00:20:35;;;;;;;4.40;3.20;;;13.80;20.10;;;;;;5033226;28;20579;-66
2021/04/10 00:23:01;;;;;;;3.00;2.70;;;13.80;20.10;;;;;;5048769;28;20194;-66
2021/04/10 00:25:26;;;;;;;3.50;3.10;;;13.80;20.10;;;;;;5030904;28;20196;-66
2021/04/10 00:27:52;;;;;;;3.07;2.77;;;13.80;19.40;;;;;;5048926;28;20177;-66
2021/04/10 00:30:17;;;;;;;3.27;3.07;;;13.80;20.10;;;;;;5049316;28;20176;-66
2021/04/10 00:32:43;;;;;;;3.00;2.80;;;13.80;19.70;;;;;;5049105;28;20584;-66
2021/04/10 00:35:09;;;;;;;5.97;2.90;;;13.80;19.80;;;;;;5049175;28;20565;-66
2021/04/10 00:37:35;;;;;;;2.60;2.40;;;13.80;19.70;;;;;;5050090;28;20255;-66
2021/04/10 00:40:03;;;;;;;3.67;3.37;;;13.90;19.70;;;;;;5050845;28;20434;-66
2021/04/10 00:42:29;;;;;;;6.10;2.97;;;13.90;19.70;;;;;;5050508;28;20782;-66
2021/04/10 00:44:55;;;;;;;2.70;2.50;;;13.90;19.70;;;;;;5050500;28;20422;-66
2021/04/10 00:47:20;;;;;;;2.90;2.60;;;13.90;19.70;;;;;;5053590;28;20556;-66
2021/04/10 00:49:46;;;;;;;2.97;2.77;;;13.90;19.60;;;;;;5054166;28;20306;-67
2021/04/10 00:52:13;;;;;;;3.77;2.80;;;13.90;19.50;;;;;;5054093;28;20175;-66
2021/04/10 00:54:40;;;;;;;2.93;2.70;;;13.90;19.40;;;;;;5054068;28;20415;-66
2021/04/10 00:57:06;;;;;;;3.37;2.80;;;13.90;19.60;;;;;;5035970;28;20412;-66
2021/04/10 00:59:32;;;;;;;3.93;2.50;;;13.90;19.40;;;;;;5054166;28;20412;-67
2021/04/10 01:02:00;;;;;;;2.20;2.10;;;13.80;19.50;;;;;;5054493;28;20488;-67
2021/04/10 01:04:26;;;;;;;3.47;2.80;;;13.90;19.30;;;;;;5053562;28;20199;-66
2021/04/10 01:06:52;;;;;;;4.17;2.90;;;13.80;19.30;;;;;;5053762;28;20490;-66
2021/04/10 01:09:17;;;;;;;2.50;2.30;;;13.80;19.90;;;;;;5054085;28;20242;-66
2021/04/10 01:11:55;;;;;;;3.53;2.57;;;13.80;19.20;;;;;;5053641;28;20168;-67
2021/04/10 01:14:44;;;;;;;3.87;2.50;;;13.70;19.30;;;;;;5053900;28;20168;-66
2021/04/10 01:17:16;;;;;;;8.10;2.67;;;13.80;19.40;;;;;;5053705;28;20434;-66
2021/04/10 01:20:37;;;;;;;5.30;3.10;;;13.70;19.40;;;;;;5053599;28;20417;-66
2021/04/10 01:23:36;;;;;;;3.97;2.50;;;13.70;19.40;;;;;;5050780;28;20426;-66
2021/04/10 01:26:02;;;;;;;2.50;2.40;;;13.80;19.50;;;;;;5053480;28;20465;-66
2021/04/10 01:28:54;;;;;;;2.60;2.40;;;13.80;19.50;;;;;;5053694;28;21006;-66
2021/04/10 01:31:24;;;;;;;2.80;2.60;;;13.70;19.40;;;;;;5053628;28;20168;-66
2021/04/10 01:33:54;;;;;;;4.93;2.30;;;13.70;19.50;;;;;;5057522;28;20426;-66
2021/04/10 01:36:25;;;;;;;3.53;3.23;;;13.60;19.60;;;;;;5073598;28;20890;-66
2021/04/10 01:38:53;;;;;;;2.67;2.47;;;13.60;19.80;;;;;;5065176;28;20410;-66
2021/04/10 01:41:21;;;;;;;2.43;2.23;;;13.70;20.10;;;;;;5053116;28;20452;-66
2021/04/10 01:43:48;;;;;;;3.00;2.10;;;13.60;19.80;;;;;;5035483;28;20828;-66
2021/04/10 01:46:15;;;;;;;2.40;2.20;;;13.60;19.90;;;;;;5041233;28;20493;-66
2021/04/10 01:48:45;;;;;;;2.50;2.40;;;13.60;20.00;;;;;;5072787;28;20412;-66
2021/04/10 01:51:12;;;;;;;2.60;2.10;;;13.60;20.00;;;;;;5073521;28;20412;-66
2021/04/10 01:53:39;;;;;;;2.13;2.03;;;13.60;20.30;;;;;;5073127;28;20413;-67
2021/04/10 01:56:06;;;;;;;2.50;2.30;;;13.60;20.00;;;;;;5054633;28;20483;-66
2021/04/10 01:58:34;;;;;;;3.60;3.10;;;13.50;20.20;;;;;;5072597;28;20418;-66
2021/04/10 02:01:00;;;;;;;4.03;2.20;;;13.60;20.30;;;;;;5065382;28;20513;-66
2021/04/10 02:03:26;;;;;;;3.63;2.60;;;13.60;20.00;;;;;;5052641;28;20411;-66
2021/04/10 02:05:53;;;;;;;3.13;1.90;;;13.60;20.30;;;;;;5052691;28;20465;-66
2021/04/10 02:08:20;;;;;;;2.50;2.23;;;13.60;20.30;;;;;;5052930;28;20403;-67
2021/04/10 02:10:46;;;;;;;3.20;2.47;;;13.50;20.40;;;;;;5052631;28;20414;-67
2021/04/10 02:13:13;;;;;;;3.23;2.80;;;13.40;20.40;;;;;;5053000;28;20403;-67
2021/04/10 02:15:39;;;;;;;2.43;2.33;;;13.40;20.60;;;;;;5052921;28;20433;-67
2021/04/10 02:18:05;;;;;;;3.43;2.10;;;13.50;20.50;;;;;;5052463;28;20497;-67
2021/04/10 02:20:31;;;;;;;2.63;2.03;;;13.50;20.40;;;;;;5052719;28;20419;-66
2021/04/10 02:22:57;;;;;;;3.90;2.00;;;13.40;20.60;;;;;;5052540;28;20464;-67
2021/04/10 02:25:28;;;;;;;2.73;2.10;;;13.40;20.70;;;;;;5052236;28;20203;-66
2021/04/10 02:27:54;;;;;;;2.17;2.00;;;13.50;20.80;;;;;;5052383;28;20454;-66
2021/04/10 02:30:20;;;;;;;2.40;1.90;;;13.50;20.80;;;;;;5052430;28;20406;-66
2021/04/10 02:33:10;;;;;;;2.03;1.83;;;13.50;20.80;;;;;;5051755;28;20403;-66
2021/04/10 02:35:49;;;;;;;3.10;2.90;;;13.50;20.60;;;;;;5051094;28;20414;-66
2021/04/10 02:38:19;;;;;;;4.07;2.47;;;13.50;20.70;;;;;;5052593;28;20407;-66
2021/04/10 02:40:48;;;;;;;2.93;2.03;;;13.60;21.10;;;;;;5051987;28;20420;-66
2021/04/10 02:43:20;;;;;;;4.60;2.57;;;13.50;20.90;;;;;;5052210;28;20417;-66
2021/04/10 02:45:48;;;;;;;2.20;2.10;;;13.40;21.20;;;;;;5051693;28;20492;-67
2021/04/10 02:48:22;;;;;;;2.43;2.23;;;13.40;21.30;;;;;;5051828;28;20436;-66
2021/04/10 02:50:50;;;;;;;2.53;2.00;;;13.40;21.30;;;;;;5052038;28;20442;-67
2021/04/10 02:53:16;;;;;;;2.83;1.90;;;13.40;21.40;;;;;;5051799;28;20415;-67
2021/04/10 02:55:46;;;;;;;2.03;1.80;;;13.40;21.40;;;;;;5051554;28;20847;-67
2021/04/10 02:58:13;;;;;;;2.80;2.60;;;13.40;21.50;;;;;;5051860;28;20460;-67
2021/04/10 03:00:43;;;;;;;3.27;2.33;;;13.40;21.40;;;;;;5033432;28;20449;-67
2021/04/10 03:03:12;;;;;;;4.97;2.40;;;13.40;21.60;;;;;;5051588;28;20877;-67
2021/04/10 03:05:40;;;;;;;2.50;2.40;;;13.50;21.50;;;;;;5051430;28;20438;-67
2021/04/10 03:08:07;;;;;;;2.90;2.33;;;13.40;21.70;;;;;;5050774;28;20489;-65
2021/04/10 03:10:33;;;;;;;3.17;2.10;;;13.40;21.50;;;;;;5046839;28;20791;-66
2021/04/10 03:13:00;;;;;;;3.57;3.13;;;13.50;21.60;;;;;;5049425;28;20415;-66
2021/04/10 03:15:26;;;;;;;8.10;2.80;;;13.50;21.50;;;;;;5051422;28;20829;-67
2021/04/10 03:17:52;;;;;;;3.60;2.33;;;13.50;21.50;;;;;;5051457;28;20415;-67
2021/04/10 03:20:20;;;;;;;3.03;2.10;;;13.50;21.80;;;;;;5051453;28;20485;-67
2021/04/10 03:22:48;;;;;;;2.83;2.63;;;13.50;21.90;;;;;;5051617;28;20797;-67
2021/04/10 03:25:16;;;;;;;2.60;2.30;;;13.50;22.30;;;;;;5050977;28;20557;-66
2021/04/10 03:27:43;;;;;;;3.70;2.80;;;13.40;22.40;;;;;;5051440;28;20468;-66
2021/04/10 03:30:11;;;;;;;2.10;2.00;;;13.50;22.60;;;;;;5033616;28;20486;-67
2021/04/10 03:32:38;;;;;;;2.73;2.03;;;13.50;23.10;;;;;;5050993;28;20917;-66
2021/04/10 03:35:05;;;;;;;5.43;2.10;;;13.50;22.90;;;;;;5051108;28;20430;-66
2021/04/10 03:37:31;;;;;;;2.20;2.00;;;13.40;23.20;;;;;;5051471;28;20406;-66
2021/04/10 03:39:58;;;;;;;2.17;2.00;;;13.50;23.60;;;;;;5051179;28;20488;-66
2021/04/10 03:42:44;;;;;;;4.80;2.10;;;13.50;24.40;;;;;;5051440;28;20924;-67
2021/04/10 03:45:15;;;;;;;4.70;2.53;;;13.40;25.30;;;;;;5050502;28;20533;-67
2021/04/10 03:47:41;;;;;;;2.77;2.57;;;13.30;25.40;;;;;;5050971;28;20493;-67
2021/04/10 03:50:08;;;;;;;2.27;2.07;;;13.40;24.90;;;;;;5051336;28;20861;-67
2021/04/10 03:52:33;;;;;;;3.33;2.20;;;13.40;25.50;;;;;;5051249;28;20972;-67
2021/04/10 03:54:59;;;;;;;2.40;2.20;;;13.30;25.40;;;;;;5050624;28;20430;-67
2021/04/10 03:57:27;;;;;;;4.20;2.00;;;13.30;25.20;;;;;;5051262;28;20617;-67
2021/04/10 03:59:53;;;;;;;2.53;2.10;;;13.40;25.40;;;;;;5051032;28;20414;-67
2021/04/10 04:02:18;;;;;;;4.60;3.00;;;13.40;25.50;;;;;;5050917;28;20425;-67
2021/04/10 04:04:44;;;;;;;2.37;2.17;;;13.40;25.50;;;;;;5050921;28;20182;-67
2021/04/10 04:07:09;;;;;;;3.40;2.57;;;13.30;25.60;;;;;;5051105;28;20619;-67
2021/04/10 04:09:36;;;;;;;2.60;2.43;;;13.10;25.40;;;;;;5050879;28;20609;-67
2021/04/10 04:12:03;;;;;;;3.70;2.00;;;13.20;25.40;;;;;;5050985;28;20644;-66
2021/04/10 04:14:29;;;;;;;3.00;2.47;;;13.30;25.40;;;;;;5050659;28;20414;-66
2021/04/10 04:16:54;;;;;;;2.50;2.30;;;13.30;25.90;;;;;;5050570;28;20449;-66
2021/04/10 04:19:20;;;;;;;3.60;2.30;;;13.20;25.80;;;;;;5050962;28;20204;-66
2021/04/10 04:21:45;;;;;;;3.63;2.40;;;13.30;25.80;;;;;;5053264;28;20176;-67
2021/04/10 04:24:11;;;;;;;3.17;2.00;;;13.20;25.40;;;;;;5054251;28;20191;-67
2021/04/10 04:26:37;;;;;;;2.80;2.40;;;13.30;25.40;;;;;;5054604;28;20208;-67
2021/04/10 04:29:03;;;;;;;5.57;2.40;;;13.30;25.40;;;;;;5054609;28;20179;-67
2021/04/10 04:31:28;;;;;;;2.37;2.27;;;13.30;25.40;;;;;;5054506;28;20203;-67
2021/04/10 04:33:54;;;;;;;3.13;2.00;;;13.10;25.90;;;;;;5054634;28;20457;-67
2021/04/10 04:36:19;;;;;;;2.50;2.20;;;13.10;25.70;;;;;;5054545;28;20203;-66
2021/04/10 04:38:45;;;;;;;2.17;2.07;;;13.20;25.80;;;;;;5054694;28;20606;-67
2021/04/10 04:41:10;;;;;;;2.23;2.00;;;13.20;25.70;;;;;;5054583;28;20187;-65
2021/04/10 04:43:36;;;;;;;2.13;2.03;;;13.20;25.80;;;;;;5059502;28;20214;-67
2021/04/10 04:46:02;;;;;;;2.70;2.20;;;13.10;25.90;;;;;;5054183;28;20245;-67
2021/04/10 04:48:27;;;;;;;2.50;2.30;;;13.10;26.00;;;;;;5054638;28;20218;-66
2021/04/10 04:50:53;;;;;;;3.27;2.97;;;13.20;26.00;;;;;;5054530;28;20480;-67
2021/04/10 04:53:18;;;;;;;2.43;2.30;;;13.10;26.00;;;;;;5054218;28;20636;-66
2021/04/10 04:55:44;;;;;;;1.90;1.80;;;13.00;26.30;;;;;;5054207;28;20250;-66
2021/04/10 04:58:09;;;;;;;2.80;2.13;;;13.10;26.20;;;;;;5061481;28;20175;-67
2021/04/10 05:00:35;;;;;;;2.43;2.10;;;12.80;26.50;;;;;;5073979;28;20174;-67
2021/04/10 05:03:01;;;;;;;3.77;2.10;;;12.60;27.00;;;;;;5074444;28;20232;-67
2021/04/10 05:05:27;;;;;;;2.40;2.20;;;12.50;27.50;;;;;;5074066;28;20580;-66
2021/04/10 05:07:52;;;;;;;3.53;2.30;;;12.60;27.90;;;;;;5073974;28;20198;-67
2021/04/10 05:10:18;;;;;;;2.13;2.03;;;12.40;30.10;;;;;;5074186;28;20432;-67
2021/04/10 05:12:43;;;;;;;4.13;2.30;;;12.30;32.00;;;;;;5073989;28;20171;-67
2021/04/10 05:15:10;;;;;;;4.57;2.37;;;12.20;32.70;;;;;;5073580;28;20651;-67
2021/04/10 05:17:35;;;;;;;3.37;2.83;;;12.20;32.50;;;;;;5074091;28;20556;-67
2021/04/10 05:20:01;;;;;;;2.80;2.60;;;12.20;33.40;;;;;;5070374;28;20426;-67
2021/04/10 05:22:26;;;;;;;2.20;2.00;;;12.30;32.40;;;;;;5073708;28;20203;-66
2021/04/10 05:24:52;;;;;;;2.67;2.47;;;12.30;32.00;;;;;;5058087;28;20227;-66
2021/04/10 05:27:17;;;;;;;3.47;2.23;;;12.30;31.60;;;;;;5053678;28;20222;-67
2021/04/10 05:29:43;;;;;;;2.53;2.10;;;12.20;32.00;;;;;;5053561;28;20666;-67
2021/04/10 05:32:08;;;;;;;3.40;2.50;;;12.20;33.10;;;;;;5070677;28;20655;-67
2021/04/10 05:34:34;;;;;;;3.90;2.83;;;12.20;31.70;;;;;;5073183;28;20172;-67
2021/04/10 05:36:59;;;;;;;3.17;2.90;;;12.20;31.30;;;;;;5073584;28;20174;-67
2021/04/10 05:39:25;;;;;;;2.70;2.50;;;12.20;31.70;;;;;;5073358;28;20172;-67
2021/04/10 05:41:52;;;;;;;4.90;2.33;;;12.10;31.70;;;;;;5068334;28;20635;-67
2021/04/10 05:44:18;;;;;;;3.30;2.53;;;12.10;31.70;;;;;;5053320;28;20168;-67
2021/04/10 05:46:43;;;;;;;2.20;2.10;;;12.10;31.80;;;;;;5053087;28;20468;-66
2021/04/10 05:49:09;;;;;;;1.70;1.60;;;12.00;31.40;;;;;;5053377;28;20168;-67
2021/04/10 05:51:34;;;;;;;2.53;2.33;;;12.00;31.70;;;;;;5053339;28;20172;-67
2021/04/10 05:54:00;;;;;;;3.20;2.27;;;12.10;31.10;;;;;;5052905;28;20460;-67
2021/04/10 05:56:25;;;;;;;4.73;2.40;;;12.20;30.70;;;;;;5053008;28;20223;-67
2021/04/10 05:58:51;;;;;;;2.43;2.10;;;12.30;29.90;;;;;;5058609;28;20714;-67
2021/04/10 06:01:16;;;;;;;4.33;2.23;;;12.30;29.60;;;;;;5059619;28;20214;-66
2021/04/10 06:03:42;;;;;;;3.77;2.33;;;12.30;29.60;;;;;;5053077;28;20640;-67
2021/04/10 06:06:08;;;;;;;2.10;1.90;;;12.20;29.50;;;;;;5052791;28;20207;-67
2021/04/10 06:08:34;;;;;;;2.67;2.47;;;12.10;29.30;;;;;;5052795;28;20188;-67
2021/04/10 06:10:59;;;;;;;2.70;2.23;;;12.20;29.40;;;;;;5052922;28;20431;-67
2021/04/10 06:13:25;;;;;;;3.53;2.53;;;12.20;29.30;;;;;;5052880;28;20180;-66
2021/04/10 06:15:51;;;;;;;3.43;2.20;;;12.20;29.30;;;;;;5052853;28;20215;-67
2021/04/10 06:18:17;;;;;;;2.07;1.97;;;12.20;29.10;;;;;;5064044;28;20178;-68
2021/04/10 06:20:42;;;;;;;8.07;2.33;;;12.30;28.90;;;;;;5062715;28;20410;-67
2021/04/10 06:23:08;;;;;;;2.63;2.43;;;12.40;28.90;;;;;;5055908;28;20175;-68
2021/04/10 06:25:33;;;;;;;2.57;2.37;;;12.40;28.90;;;;;;5052832;28;20203;-68
2021/04/10 06:28:03;;;;;;;4.10;2.30;;;12.50;28.70;;;;;;5071139;28;20587;-68
2021/04/10 06:30:29;;;;;;;5.57;2.40;;;12.50;28.70;;;;;;5071801;28;20214;-67
2021/04/10 06:32:55;;;;;;;3.43;2.23;;;12.50;28.50;;;;;;5054533;28;20445;-68
2021/04/10 06:35:20;;;;;;;5.03;2.80;;;12.40;28.80;;;;;;5072010;28;20214;-68
2021/04/10 06:37:46;;;;;;;15.87;3.80;;;12.40;28.90;;;;;;5068472;28;20184;-68
2021/04/10 06:40:12;;;;;;;9.00;2.70;;;12.60;28.80;;;;;;5055354;28;20224;-68
2021/04/10 06:42:40;;;;;;;2.60;2.23;;;12.50;28.90;;;;;;5053497;28;20209;-67
2021/04/10 06:45:06;;;;;;;3.47;2.40;;;12.40;29.20;;;;;;5050144;28;20580;-67
2021/04/10 06:47:33;;;;;;;2.60;2.30;;;12.40;29.00;;;;;;5069092;28;20457;-67
2021/04/10 06:50:00;;;;;;;3.77;2.20;;;12.50;29.10;;;;;;5061294;28;20504;-67
2021/04/10 06:52:27;;;;;;;2.37;2.10;;;12.50;29.20;;;;;;5044683;28;20422;-67
2021/04/10 06:55:04;;;;;;;2.23;2.10;;;12.50;29.40;;;;;;5061209;28;20901;-67
2021/04/10 06:57:35;;;;;;;2.93;2.30;;;12.50;29.70;;;;;;5055056;28;20412;-67
2021/04/10 07:00:09;;;;;;;5.30;3.33;;;12.50;29.40;;;;;;5051974;28;20480;-67
2021/04/10 07:02:37;;;;;;;2.87;2.30;;;12.50;30.10;;;;;;5058006;28;20425;-67
2021/04/10 07:05:03;;;;;;;3.00;2.00;;;12.60;31.20;;;;;;5070039;28;20499;-67
2021/04/10 07:07:29;;;;;;;2.10;2.00;;;12.60;31.50;;;;;;5051362;28;20458;-67
2021/04/10 07:09:54;;;;;;;2.67;2.47;;;12.50;32.40;;;;;;5051526;28;20413;-67
2021/04/10 07:12:20;;;;;;;2.50;2.30;;;12.60;32.40;;;;;;5051681;28;20182;-67
2021/04/10 07:14:46;;;;;;;4.67;2.50;;;12.70;32.80;;;;;;5051527;28;20598;-67
2021/04/10 07:17:13;;;;;;;2.80;2.60;;;12.50;32.60;;;;;;5051676;28;20910;-67
2021/04/10 07:19:39;;;;;;;2.80;2.60;;;12.50;32.60;;;;;;5051582;28;20419;-67
2021/04/10 07:22:13;;;;;;;8.37;7.53;;;12.50;33.00;;;;;;5051308;28;20426;-67
2021/04/10 07:24:44;;;;;;;2.90;2.10;;;12.50;31.60;;;;;;5051263;28;20430;-67
2021/04/10 07:27:15;;;;;;;2.30;2.10;;;12.40;31.50;;;;;;5055354;28;21012;-67
2021/04/10 07:29:46;;;;;;;2.30;2.10;;;12.50;32.70;;;;;;5059849;28;20921;-67
2021/04/10 07:32:32;;;;;;;5.30;2.43;;;12.60;31.80;;;;;;5051464;28;20424;-67
2021/04/10 07:34:59;;;;;;;2.20;2.00;;;12.80;31.30;;;;;;5063511;28;20437;-66
2021/04/10 07:37:51;;;;;;;2.53;2.07;;;12.70;30.20;;;;;;5067403;28;20420;-67
2021/04/10 07:40:22;;;;;;;2.83;2.13;;;12.60;30.30;;;;;;5029867;28;20423;-67
2021/04/10 07:42:48;;;;;;;2.73;2.40;;;12.70;30.00;;;;;;5071664;28;20421;-67
2021/04/10 07:45:34;;;;;;;2.43;2.13;;;12.80;29.90;;;;;;5068147;28;20937;-67
2021/04/10 07:48:03;;;;;;;1.93;1.83;;;12.60;29.90;;;;;;5060052;28;20457;-67
2021/04/10 07:50:30;;;;;;;6.13;5.50;;;12.60;30.80;;;;;;5055505;28;20427;-67
2021/04/10 07:52:55;;;;;;;4.87;4.47;;;14.20;36.10;;;;;;5063777;28;20455;-67
2021/04/10 07:55:39;;;;;;;3.37;3.13;;;14.70;35.60;;;;;;5063480;28;20472;-67
2021/04/10 07:58:26;;;;;;;9.57;5.23;;;14.90;28.80;;;;;;5055232;28;20167;-67
2021/04/10 08:00:55;;;;;;;5.10;3.07;;;15.10;27.90;;;;;;5055373;28;20932;-67
2021/04/10 08:03:25;;;;;;;3.60;3.30;;;14.90;27.90;;;;;;5055448;28;20417;-67
2021/04/10 08:05:51;;;;;;;4.77;4.40;;;15.20;30.10;;;;;;5066129;28;21018;-67
2021/04/10 08:08:24;;;;;;;2.17;2.07;;;15.90;28.40;;;;;;5055365;28;20407;-66
2021/04/10 08:11:01;;;;;;;3.20;2.90;;;15.70;25.40;;;;;;5072893;28;20210;-67
2021/04/10 08:13:27;;;;;;;2.10;2.00;;;14.30;28.30;;;;;;5074987;28;20411;-67
2021/04/10 08:16:16;;;;;;;4.03;3.13;;;14.00;30.40;;;;;;5074869;28;20468;-67
2021/04/10 08:18:47;;;;;;;2.30;2.17;;;13.50;31.00;;;;;;5057650;28;20517;-65
2021/04/10 08:21:14;;;;;;;2.23;2.13;;;13.50;31.80;;;;;;5054915;28;20406;-68
2021/04/10 08:23:40;;;;;;;2.80;2.43;;;13.30;30.90;;;;;;5061325;28;20421;-67
2021/04/10 08:26:06;;;;;;;4.23;2.27;;;13.10;32.10;;;;;;5074441;28;20475;-68
2021/04/10 08:28:32;;;;;;;2.40;2.20;;;13.10;31.50;;;;;;5071962;28;20944;-67
2021/04/10 08:30:58;;;;;;;2.47;2.27;;;12.90;31.50;;;;;;5065604;28;20421;-68
2021/04/10 08:33:26;;;;;;;2.93;2.60;;;12.80;32.20;;;;;;5060389;28;20252;-68
2021/04/10 08:35:54;;;;;;;2.30;2.20;;;12.80;32.10;;;;;;5048412;28;20446;-67
2021/04/10 08:38:23;;;;;;;4.67;3.07;;;12.50;32.30;;;;;;5054618;28;20412;-67
2021/04/10 08:40:52;;;;;;;4.40;2.10;;;12.60;32.60;;;;;;5054499;28;20774;-67
2021/04/10 08:43:20;;;;;;;2.27;2.07;;;12.60;32.20;;;;;;5054304;28;20521;-67
2021/04/10 08:45:51;;;;;;;2.90;2.60;;;12.70;31.80;;;;;;5054140;28;20429;-68
2021/04/10 08:48:20;;;;;;;2.30;2.20;;;12.60;32.20;;;;;;5054447;28;20548;-67
2021/04/10 08:50:47;;;;;;;3.93;2.20;;;12.70;32.30;;;;;;5053871;28;20486;-67
2021/04/10 08:53:19;;;;;;;3.50;2.60;;;12.60;32.60;;;;;;5054306;28;20411;-67
2021/04/10 08:55:45;;;;;;;2.73;2.53;;;12.60;33.40;;;;;;5054075;28;20438;-67
2021/04/10 08:58:41;;;;;;;2.67;2.07;;;12.80;34.00;;;;;;5054087;28;20402;-67
2021/04/10 09:01:17;;;;;;;2.87;2.07;;;12.60;32.70;;;;;;5052239;28;20430;-67
2021/04/10 09:03:46;;;;;;;3.03;2.80;;;12.60;32.30;;;;;;5054032;28;20413;-67
2021/04/10 09:06:44;;;;;;;2.80;2.43;;;12.60;32.20;;;;;;5053573;28;20454;-67
2021/04/10 09:09:12;;;;;;;2.17;2.03;;;12.60;31.70;;;;;;5053858;28;20948;-67
2021/04/10 09:11:39;;;;;;;2.00;1.80;;;12.50;31.60;;;;;;5054010;28;20769;-68
2021/04/10 09:14:05;;;;;;;3.53;1.93;;;12.40;31.10;;;;;;5053552;28;20414;-68
2021/04/10 09:16:34;;;;;;;2.57;2.03;;;12.50;31.00;;;;;;5053737;28;20438;-68
2021/04/10 09:19:23;;;;;;;2.20;2.10;;;12.50;31.10;;;;;;5053657;28;20417;-68
2021/04/10 09:21:58;;;;;;;5.13;2.73;;;12.70;30.20;;;;;;5053822;28;20422;-68
2021/04/10 09:24:41;;;;;;;3.33;1.70;;;12.70;30.10;;;;;;5053548;28;20467;-68
2021/04/10 09:27:17;;;;;;;3.30;1.90;;;12.80;29.60;;;;;;5053460;28;20548;-68
2021/04/10 09:29:55;;;;;;;2.57;2.00;;;12.90;29.50;;;;;;5036030;28;20840;-67
2021/04/10 09:32:41;;;;;;;1.90;1.73;;;12.80;29.40;;;;;;5054113;28;20411;-67
2021/04/10 09:35:12;;;;;;;2.30;2.10;;;12.80;29.80;;;;;;5053061;28;20496;-67
2021/04/10 09:37:37;;;;;;;2.20;2.00;;;12.90;29.40;;;;;;5056626;28;20806;-68
2021/04/10 09:40:17;;;;;;;1.70;1.60;;;13.00;29.10;;;;;;5064733;28;20424;-66
2021/04/10 09:42:53;;;;;;;4.97;1.83;;;12.90;29.00;;;;;;5053402;28;20172;-68
2021/04/10 09:45:22;;;;;;;2.20;2.00;;;13.00;29.20;;;;;;5053771;28;20517;-68
2021/04/10 09:47:57;;;;;;;1.90;1.80;;;13.10;29.00;;;;;;5053365;28;20541;-67
2021/04/10 09:50:31;;;;;;;2.20;2.00;;;13.30;28.90;;;;;;5060798;28;20417;-67
2021/04/10 09:53:09;;;;;;;4.40;2.23;;;13.20;28.60;;;;;;5055243;28;20455;-66
2021/04/10 09:55:36;;;;;;;5.03;1.70;;;13.30;28.50;;;;;;5073145;28;20449;-67
2021/04/10 09:58:12;;;;;;;3.00;1.70;;;13.40;28.40;;;;;;5072707;28;20929;-67
2021/04/10 10:00:39;;;;;;;2.40;2.10;;;13.30;27.90;;;;;;5073249;28;20405;-67
2021/04/10 10:03:06;;;;;;;3.20;2.00;;;13.20;28.10;;;;;;5055157;28;20943;-68
2021/04/10 10:05:34;;;;;;;2.33;2.10;;;13.30;28.10;;;;;;5072735;28;20433;-68
2021/04/10 10:08:09;;;;;;;3.40;2.60;;;13.40;28.20;;;;;;5072882;28;20518;-68
2021/04/10 10:10:43;;;;;;;3.57;2.07;;;13.40;28.20;;;;;;5072906;28;20424;-66
2021/04/10 10:13:10;;;;;;;2.70;2.07;;;13.40;28.00;;;;;;5072285;28;20401;-66
2021/04/10 10:15:36;;;;;;;2.17;1.97;;;13.50;27.90;;;;;;5072706;28;20453;-66
2021/04/10 10:18:17;;;;;;;3.90;1.87;;;13.50;27.70;;;;;;5072770;28;20872;-68
2021/04/10 10:20:56;;;;;;;2.20;2.10;;;13.60;27.40;;;;;;5072671;28;20417;-67
2021/04/10 10:23:23;;;;;;;1.70;1.60;;;13.70;27.20;;;;;;5072640;28;20428;-67
2021/04/10 10:25:49;;;;;;;1.87;1.60;;;13.50;27.40;;;;;;5072111;28;20528;-67
2021/04/10 10:28:16;;;;;;;2.23;1.70;;;13.70;27.60;;;;;;5070555;28;20470;-68
2021/04/10 10:30:42;;;;;;;2.23;2.03;;;13.70;27.30;;;;;;5056699;28;20175;-68
2021/04/10 10:33:07;;;;;;;2.70;2.50;;;13.70;27.10;;;;;;5069687;28;20467;-67
2021/04/10 10:35:35;;;;;;;3.33;3.03;;;13.90;27.00;;;;;;5063731;28;20453;-67
2021/04/10 10:38:05;;;;;;;2.90;2.50;;;13.90;26.90;;;;;;5057513;28;20480;-68
2021/04/10 10:40:31;;;;;;;2.70;2.43;;;14.00;26.80;;;;;;5063691;28;20464;-67
2021/04/10 10:43:09;;;;;;;2.00;1.90;;;14.20;26.40;;;;;;5072326;28;20406;-67
2021/04/10 10:45:49;;;;;;;1.90;1.80;;;14.00;26.30;;;;;;5072201;28;20438;-67
2021/04/10 10:48:21;;;;;;;2.00;1.90;;;14.00;25.90;;;;;;5058004;28;20430;-66
2021/04/10 10:50:48;;;;;;;4.20;2.40;;;14.00;26.30;;;;;;5052215;28;20818;-67
2021/04/10 10:53:25;;;;;;;2.27;2.07;;;14.00;26.60;;;;;;5052105;28;20403;-66
2021/04/10 10:55:55;;;;;;;1.83;1.73;;;13.90;26.10;;;;;;5051810;28;20426;-67
2021/04/10 10:58:22;;;;;;;1.90;1.70;;;13.80;26.70;;;;;;5052159;28;20461;-66
2021/04/10 11:00:47;;;;;;;1.60;1.50;;;13.90;26.20;;;;;;5051964;28;20403;-66
2021/04/10 11:03:22;;;;;;;1.50;1.40;;;13.90;26.10;;;;;;5051835;28;20460;-67
2021/04/10 11:05:49;;;;;;;2.27;2.17;;;13.80;26.20;;;;;;5051897;28;20206;-66
2021/04/10 11:08:21;;;;;;;6.33;3.20;;;14.00;26.30;;;;;;5052377;28;20411;-66
2021/04/10 11:10:49;;;;;;;3.63;1.90;;;14.10;26.00;;;;;;5051736;28;20390;-67
2021/04/10 11:13:16;;;;;;;5.80;2.53;;;14.00;25.90;;;;;;5051902;28;20913;-67
2021/04/10 11:15:46;;;;;;;2.17;2.07;;;14.10;26.40;;;;;;5051583;28;20418;-66
2021/04/10 11:18:32;;;;;;;2.33;2.00;;;14.10;26.00;;;;;;5051559;28;20418;-67
2021/04/10 11:21:26;;;;;;;2.30;2.10;;;14.10;26.00;;;;;;5051829;28;20460;-67
2021/04/10 11:24:01;;;;;;;1.90;1.80;;;14.10;26.00;;;;;;5051605;28;20488;-67
2021/04/10 11:26:34;;;;;;;5.77;2.10;;;13.90;26.20;;;;;;5051260;28;20461;-66
2021/04/10 11:29:26;;;;;;;3.10;2.00;;;14.00;26.10;;;;;;5051738;28;20456;-67
2021/04/10 11:32:11;;;;;;;2.67;2.47;;;14.20;26.00;;;;;;5050546;28;20402;-66
2021/04/10 11:34:39;;;;;;;4.20;3.80;;;14.40;26.80;;;;;;5051296;28;20410;-66
2021/04/10 11:37:06;;;;;;;4.63;4.13;;;14.40;26.10;;;;;;5051631;28;20456;-67
2021/04/10 11:39:50;;;;;;;1.60;1.43;;;14.30;26.10;;;;;;5051432;28;20440;-67
2021/04/10 11:42:27;;;;;;;2.13;1.97;;;14.30;26.00;;;;;;5051258;28;20747;-67
2021/04/10 11:44:54;;;;;;;1.97;1.87;;;14.20;26.00;;;;;;5051195;28;20505;-67
2021/04/10 11:47:23;;;;;;;4.23;2.60;;;14.40;25.80;;;;;;5050941;28;21088;-67
2021/04/10 11:49:49;;;;;;;2.37;1.90;;;14.50;25.60;;;;;;5054471;28;20417;-67
2021/04/10 11:52:15;;;;;;;2.40;2.13;;;14.70;25.30;;;;;;5054744;28;20422;-67
2021/04/10 11:54:41;;;;;;;1.63;1.33;;;14.80;25.40;;;;;;5052026;28;20554;-68
2021/04/10 11:57:25;;;;;;;3.17;1.70;;;14.80;24.80;;;;;;5062412;28;20416;-67
2021/04/10 12:00:05;;;;;;;1.97;1.73;;;14.80;25.10;;;;;;5071250;28;20515;-68
2021/04/10 12:02:39;;;;;;;2.07;1.87;;;14.90;25.20;;;;;;5071023;28;20921;-68
2021/04/10 12:05:26;;;;;;;4.83;1.70;;;15.00;25.20;;;;;;5052766;28;20450;-66
2021/04/10 12:08:08;;;;;;;3.77;1.83;;;15.00;24.90;;;;;;5057749;28;20837;-66
2021/04/10 12:10:36;;;;;;;1.90;1.80;;;15.10;24.90;;;;;;5070947;28;20417;-65
2021/04/10 12:13:02;;;;;;;1.80;1.70;;;15.10;24.70;;;;;;5071225;28;20437;-67
2021/04/10 12:15:33;;;;;;;1.80;1.70;;;15.20;24.30;;;;;;5070632;28;20476;-67
2021/04/10 12:17:59;;;;;;;2.30;2.10;;;15.10;24.10;;;;;;5070796;28;20168;-68
2021/04/10 12:20:25;;;;;;;2.47;1.40;;;15.10;24.00;;;;;;5071264;28;20423;-67
2021/04/10 12:22:51;;;;;;;1.80;1.70;;;15.10;24.10;;;;;;5071075;28;20887;-67
2021/04/10 12:25:17;;;;;;;2.27;1.50;;;15.10;24.10;;;;;;5050627;28;20441;-67
2021/04/10 12:27:42;;;;;;;4.00;1.63;;;15.30;24.20;;;;;;5051088;28;20542;-66
2021/04/10 12:30:09;;;;;;;4.07;1.77;;;15.30;24.00;;;;;;5035719;28;20185;-66
2021/04/10 12:32:35;;;;;;;2.17;1.57;;;15.40;24.10;;;;;;5031143;28;20184;-66
2021/04/10 12:35:01;;;;;;;1.70;1.57;;;15.50;23.80;;;;;;5031106;28;20424;-66
2021/04/10 12:37:27;;;;;;;3.10;2.90;;;15.50;23.50;;;;;;5031020;28;20188;-66
2021/04/10 12:39:52;;;;;;;1.80;1.53;;;15.50;23.50;;;;;;5030842;28;20420;-67
2021/04/10 12:42:18;;;;;;;1.93;1.47;;;15.60;24.00;;;;;;5032509;28;20515;-65
2021/04/10 12:44:43;;;;;;;1.57;1.47;;;15.70;23.10;;;;;;5034494;28;20176;-67
2021/04/10 12:47:16;;;;;;;1.50;1.40;;;15.60;23.10;;;;;;5034498;28;20578;-66
2021/04/10 12:49:42;;;;;;;1.67;1.57;;;15.70;23.40;;;;;;5034758;28;20255;-66
2021/04/10 12:52:08;;;;;;;2.33;1.63;;;15.90;23.50;;;;;;5034639;28;20465;-66
2021/04/10 12:54:34;;;;;;;2.83;1.70;;;16.00;23.30;;;;;;5034506;28;20407;-66
2021/04/10 12:56:59;;;;;;;5.27;1.90;;;16.10;22.50;;;;;;5034643;28;20519;-66
2021/04/10 12:59:25;;;;;;;1.80;1.57;;;16.20;23.00;;;;;;5034456;28;20187;-66